sensor_id;sensor_type;location;lat;lon;timestamp;temperature;humidity
79301;SHT31;68755;51.984;5.646;2023-05-10T00:00:16;16.5;74.9
79301;SHT31;68755;51.984;5.646;2023-05-10T00:02:45;16.5;75.2
79301;SHT31;68755;51.984;5.646;2023-05-10T00:05:15;16.5;75.1
79301;SHT31;68755;51.984;5.646;2023-05-10T00:07:45;16.4;75.1
79301;SHT31;68755;51.984;5.646;2023-05-10T00:10:14;16.4;75.2
79301;SHT31;68755;51.984;5.646;2023-05-10T00:12:46;16.4;75.2
79301;SHT31;68755;51.984;5.646;2023-05-10T00:15:16;16.4;75.3
79301;SHT31;68755;51.984;5.646;2023-05-10T00:17:45;16.4;75.3
79301;SHT31;68755;51.984;5.646;2023-05-10T00:20:16;16.4;75.2
79301;SHT31;68755;51.984;5.646;2023-05-10T00:22:46;16.4;75.2
79301;SHT31;68755;51.984;5.646;2023-05-10T00:25:16;16.4;75.3
79301;SHT31;68755;51.984;5.646;2023-05-10T00:27:46;16.4;75.4
79301;SHT31;68755;51.984;5.646;2023-05-10T00:30:16;16.4;75.4
79301;SHT31;68755;51.984;5.646;2023-05-10T00:32:46;16.4;75.5
79301;SHT31;68755;51.984;5.646;2023-05-10T00:35:17;16.4;75.4
79301;SHT31;68755;51.984;5.646;2023-05-10T00:37:47;16.4;75.2
79301;SHT31;68755;51.984;5.646;2023-05-10T00:40:17;16.4;75.4
79301;SHT31;68755;51.984;5.646;2023-05-10T00:42:49;16.4;75.5
79301;SHT31;68755;51.984;5.646;2023-05-10T00:45:18;16.4;75.6
79301;SHT31;68755;51.984;5.646;2023-05-10T00:47:48;16.4;75.6
79301;SHT31;68755;51.984;5.646;2023-05-10T00:50:21;16.4;75.5
79301;SHT31;68755;51.984;5.646;2023-05-10T00:52:52;16.4;75.7
79301;SHT31;68755;51.984;5.646;2023-05-10T00:55:24;16.4;75.6
79301;SHT31;68755;51.984;5.646;2023-05-10T00:57:54;16.4;75.6
79301;SHT31;68755;51.984;5.646;2023-05-10T01:00:23;16.4;75.5
79301;SHT31;68755;51.984;5.646;2023-05-10T01:02:54;16.3;75.6
79301;SHT31;68755;51.984;5.646;2023-05-10T01:05:24;16.3;75.7
79301;SHT31;68755;51.984;5.646;2023-05-10T01:07:56;16.3;75.9
79301;SHT31;68755;51.984;5.646;2023-05-10T01:10:26;16.3;76.1
79301;SHT31;68755;51.984;5.646;2023-05-10T01:12:58;16.4;76.1
79301;SHT31;68755;51.984;5.646;2023-05-10T01:15:31;16.4;76.1
79301;SHT31;68755;51.984;5.646;2023-05-10T01:18:02;16.4;75.9
79301;SHT31;68755;51.984;5.646;2023-05-10T01:20:41;16.4;76.0
79301;SHT31;68755;51.984;5.646;2023-05-10T01:23:40;16.4;76.0
79301;SHT31;68755;51.984;5.646;2023-05-10T01:26:29;16.4;76.0
79301;SHT31;68755;51.984;5.646;2023-05-10T01:29:14;16.4;75.9
79301;SHT31;68755;51.984;5.646;2023-05-10T01:32:02;16.4;76.1
79301;SHT31;68755;51.984;5.646;2023-05-10T01:34:35;16.4;75.8
79301;SHT31;68755;51.984;5.646;2023-05-10T01:37:15;16.4;75.8
79301;SHT31;68755;51.984;5.646;2023-05-10T01:39:52;16.4;75.8
79301;SHT31;68755;51.984;5.646;2023-05-10T01:42:28;16.4;75.8
79301;SHT31;68755;51.984;5.646;2023-05-10T01:45:07;16.4;75.7
79301;SHT31;68755;51.984;5.646;2023-05-10T01:47:43;16.4;75.7
79301;SHT31;68755;51.984;5.646;2023-05-10T01:50:18;16.4;75.9
79301;SHT31;68755;51.984;5.646;2023-05-10T01:52:53;16.4;75.8
79301;SHT31;68755;51.984;5.646;2023-05-10T01:55:28;16.4;75.7
79301;SHT31;68755;51.984;5.646;2023-05-10T01:58:04;16.4;75.8
79301;SHT31;68755;51.984;5.646;2023-05-10T02:00:37;16.4;75.9
79301;SHT31;68755;51.984;5.646;2023-05-10T02:03:10;16.4;75.9
79301;SHT31;68755;51.984;5.646;2023-05-10T02:05:42;16.4;75.8
79301;SHT31;68755;51.984;5.646;2023-05-10T02:08:17;16.4;75.8
79301;SHT31;68755;51.984;5.646;2023-05-10T02:10:50;16.4;75.7
79301;SHT31;68755;51.984;5.646;2023-05-10T02:13:23;16.4;75.6
79301;SHT31;68755;51.984;5.646;2023-05-10T02:15:55;16.4;75.6
79301;SHT31;68755;51.984;5.646;2023-05-10T02:18:27;16.4;75.7
79301;SHT31;68755;51.984;5.646;2023-05-10T02:20:58;16.4;75.7
79301;SHT31;68755;51.984;5.646;2023-05-10T02:23:28;16.4;75.6
79301;SHT31;68755;51.984;5.646;2023-05-10T02:26:02;16.4;75.6
79301;SHT31;68755;51.984;5.646;2023-05-10T02:28:34;16.4;75.7
79301;SHT31;68755;51.984;5.646;2023-05-10T02:31:05;16.4;75.4
79301;SHT31;68755;51.984;5.646;2023-05-10T02:33:38;16.4;75.4
79301;SHT31;68755;51.984;5.646;2023-05-10T02:36:09;16.4;75.4
79301;SHT31;68755;51.984;5.646;2023-05-10T02:38:41;16.4;75.5
79301;SHT31;68755;51.984;5.646;2023-05-10T02:41:14;16.4;75.7
79301;SHT31;68755;51.984;5.646;2023-05-10T02:43:47;16.4;75.2
79301;SHT31;68755;51.984;5.646;2023-05-10T02:46:19;16.4;75.3
79301;SHT31;68755;51.984;5.646;2023-05-10T02:48:49;16.4;75.2
79301;SHT31;68755;51.984;5.646;2023-05-10T02:51:23;16.4;75.0
79301;SHT31;68755;51.984;5.646;2023-05-10T02:53:56;16.4;74.9
79301;SHT31;68755;51.984;5.646;2023-05-10T02:56:33;16.4;74.7
79301;SHT31;68755;51.984;5.646;2023-05-10T02:59:03;16.4;74.6
79301;SHT31;68755;51.984;5.646;2023-05-10T03:01:33;16.4;74.3
79301;SHT31;68755;51.984;5.646;2023-05-10T03:04:03;16.4;74.1
79301;SHT31;68755;51.984;5.646;2023-05-10T03:06:33;16.4;74.0
79301;SHT31;68755;51.984;5.646;2023-05-10T03:09:03;16.4;73.8
79301;SHT31;68755;51.984;5.646;2023-05-10T03:11:46;16.4;74.0
79301;SHT31;68755;51.984;5.646;2023-05-10T03:14:29;16.4;73.7
79301;SHT31;68755;51.984;5.646;2023-05-10T03:17:08;16.4;73.6
79301;SHT31;68755;51.984;5.646;2023-05-10T03:19:45;16.3;73.8
79301;SHT31;68755;51.984;5.646;2023-05-10T03:22:23;16.3;73.8
79301;SHT31;68755;51.984;5.646;2023-05-10T03:24:56;16.3;73.8
79301;SHT31;68755;51.984;5.646;2023-05-10T03:27:28;16.3;74.0
79301;SHT31;68755;51.984;5.646;2023-05-10T03:29:59;16.3;74.0
79301;SHT31;68755;51.984;5.646;2023-05-10T03:32:31;16.3;74.0
79301;SHT31;68755;51.984;5.646;2023-05-10T03:35:06;16.3;73.7
79301;SHT31;68755;51.984;5.646;2023-05-10T03:37:36;16.3;73.9
79301;SHT31;68755;51.984;5.646;2023-05-10T03:40:06;16.3;74.1
79301;SHT31;68755;51.984;5.646;2023-05-10T03:42:36;16.3;73.7
79301;SHT31;68755;51.984;5.646;2023-05-10T03:45:07;16.2;74.0
79301;SHT31;68755;51.984;5.646;2023-05-10T03:47:37;16.2;74.0
79301;SHT31;68755;51.984;5.646;2023-05-10T03:50:07;16.2;74.2
79301;SHT31;68755;51.984;5.646;2023-05-10T03:52:37;16.2;74.3
79301;SHT31;68755;51.984;5.646;2023-05-10T03:55:09;16.2;74.3
79301;SHT31;68755;51.984;5.646;2023-05-10T03:57:38;16.2;74.4
79301;SHT31;68755;51.984;5.646;2023-05-10T04:00:09;16.2;74.4
79301;SHT31;68755;51.984;5.646;2023-05-10T04:02:39;16.2;74.4
79301;SHT31;68755;51.984;5.646;2023-05-10T04:05:09;16.1;74.2
79301;SHT31;68755;51.984;5.646;2023-05-10T04:07:38;16.1;74.3
79301;SHT31;68755;51.984;5.646;2023-05-10T04:10:09;16.1;74.3
79301;SHT31;68755;51.984;5.646;2023-05-10T04:12:38;16.1;74.4
79301;SHT31;68755;51.984;5.646;2023-05-10T04:15:09;16.1;74.4
79301;SHT31;68755;51.984;5.646;2023-05-10T04:17:39;16.1;74.5
79301;SHT31;68755;51.984;5.646;2023-05-10T04:20:10;16.1;74.7
79301;SHT31;68755;51.984;5.646;2023-05-10T04:22:40;16.1;74.7
79301;SHT31;68755;51.984;5.646;2023-05-10T04:25:10;16.1;74.8
79301;SHT31;68755;51.984;5.646;2023-05-10T04:27:39;16.1;74.9
79301;SHT31;68755;51.984;5.646;2023-05-10T04:30:10;16.1;75.1
79301;SHT31;68755;51.984;5.646;2023-05-10T04:32:39;16.1;74.8
79301;SHT31;68755;51.984;5.646;2023-05-10T04:35:10;16.1;74.8
79301;SHT31;68755;51.984;5.646;2023-05-10T04:37:39;16.1;74.8
79301;SHT31;68755;51.984;5.646;2023-05-10T04:40:10;16.2;74.6
79301;SHT31;68755;51.984;5.646;2023-05-10T04:42:41;16.2;74.2
79301;SHT31;68755;51.984;5.646;2023-05-10T04:45:11;16.2;74.5
79301;SHT31;68755;51.984;5.646;2023-05-10T04:47:42;16.2;74.2
79301;SHT31;68755;51.984;5.646;2023-05-10T04:50:11;16.2;74.2
79301;SHT31;68755;51.984;5.646;2023-05-10T04:52:41;16.3;74.2
79301;SHT31;68755;51.984;5.646;2023-05-10T04:55:11;16.3;74.0
79301;SHT31;68755;51.984;5.646;2023-05-10T04:57:41;16.3;73.7
79301;SHT31;68755;51.984;5.646;2023-05-10T05:00:11;16.3;73.7
79301;SHT31;68755;51.984;5.646;2023-05-10T05:02:44;16.3;73.8
79301;SHT31;68755;51.984;5.646;2023-05-10T05:05:14;16.3;73.9
79301;SHT31;68755;51.984;5.646;2023-05-10T05:07:44;16.4;74.0
79301;SHT31;68755;51.984;5.646;2023-05-10T05:10:14;16.4;74.0
79301;SHT31;68755;51.984;5.646;2023-05-10T05:12:44;16.4;74.1
79301;SHT31;68755;51.984;5.646;2023-05-10T05:15:14;16.4;74.3
79301;SHT31;68755;51.984;5.646;2023-05-10T05:17:44;16.4;74.3
79301;SHT31;68755;51.984;5.646;2023-05-10T05:20:14;16.4;74.5
79301;SHT31;68755;51.984;5.646;2023-05-10T05:22:45;16.4;74.4
79301;SHT31;68755;51.984;5.646;2023-05-10T05:25:14;16.4;74.2
79301;SHT31;68755;51.984;5.646;2023-05-10T05:27:45;16.4;74.0
79301;SHT31;68755;51.984;5.646;2023-05-10T05:30:17;16.4;74.2
79301;SHT31;68755;51.984;5.646;2023-05-10T05:32:49;16.4;73.9
79301;SHT31;68755;51.984;5.646;2023-05-10T05:35:19;16.4;74.0
79301;SHT31;68755;51.984;5.646;2023-05-10T05:37:49;16.4;74.0
79301;SHT31;68755;51.984;5.646;2023-05-10T05:40:18;16.4;74.0
79301;SHT31;68755;51.984;5.646;2023-05-10T05:42:49;16.4;74.2
79301;SHT31;68755;51.984;5.646;2023-05-10T05:45:19;16.3;74.3
79301;SHT31;68755;51.984;5.646;2023-05-10T05:47:48;16.3;74.7
79301;SHT31;68755;51.984;5.646;2023-05-10T05:50:19;16.3;74.7
79301;SHT31;68755;51.984;5.646;2023-05-10T05:52:48;16.3;74.7
79301;SHT31;68755;51.984;5.646;2023-05-10T05:55:18;16.2;75.1
79301;SHT31;68755;51.984;5.646;2023-05-10T05:57:48;16.2;75.2
79301;SHT31;68755;51.984;5.646;2023-05-10T06:00:18;16.2;75.6
79301;SHT31;68755;51.984;5.646;2023-05-10T06:02:48;16.2;75.8
79301;SHT31;68755;51.984;5.646;2023-05-10T06:05:18;16.2;75.8
79301;SHT31;68755;51.984;5.646;2023-05-10T06:07:48;16.2;75.8
79301;SHT31;68755;51.984;5.646;2023-05-10T06:10:18;16.1;75.6
79301;SHT31;68755;51.984;5.646;2023-05-10T06:12:47;16.1;75.6
79301;SHT31;68755;51.984;5.646;2023-05-10T06:15:17;16.1;75.9
79301;SHT31;68755;51.984;5.646;2023-05-10T06:17:47;16.1;76.1
79301;SHT31;68755;51.984;5.646;2023-05-10T06:20:17;16.1;75.8
79301;SHT31;68755;51.984;5.646;2023-05-10T06:22:46;16.1;76.2
79301;SHT31;68755;51.984;5.646;2023-05-10T06:25:18;16.1;76.3
79301;SHT31;68755;51.984;5.646;2023-05-10T06:27:48;16.1;76.6
79301;SHT31;68755;51.984;5.646;2023-05-10T06:30:20;16.1;76.6
79301;SHT31;68755;51.984;5.646;2023-05-10T06:32:50;16.1;76.1
79301;SHT31;68755;51.984;5.646;2023-05-10T06:35:20;16.1;76.0
79301;SHT31;68755;51.984;5.646;2023-05-10T06:37:50;16.1;75.9
79301;SHT31;68755;51.984;5.646;2023-05-10T06:40:20;16.1;76.2
79301;SHT31;68755;51.984;5.646;2023-05-10T06:42:50;16.1;76.3
79301;SHT31;68755;51.984;5.646;2023-05-10T06:45:20;16.1;76.4
79301;SHT31;68755;51.984;5.646;2023-05-10T06:47:49;16.1;76.2
79301;SHT31;68755;51.984;5.646;2023-05-10T06:50:19;16.1;76.5
79301;SHT31;68755;51.984;5.646;2023-05-10T06:52:48;16.1;76.4
79301;SHT31;68755;51.984;5.646;2023-05-10T06:55:18;16.1;76.8
79301;SHT31;68755;51.984;5.646;2023-05-10T06:57:47;16.1;76.7
79301;SHT31;68755;51.984;5.646;2023-05-10T07:00:18;16.1;76.9
79301;SHT31;68755;51.984;5.646;2023-05-10T07:02:48;16.1;76.7
79301;SHT31;68755;51.984;5.646;2023-05-10T07:05:18;16.1;76.4
79301;SHT31;68755;51.984;5.646;2023-05-10T07:07:48;16.1;76.6
79301;SHT31;68755;51.984;5.646;2023-05-10T07:10:19;16.1;76.7
79301;SHT31;68755;51.984;5.646;2023-05-10T07:12:48;16.1;76.8
79301;SHT31;68755;51.984;5.646;2023-05-10T07:15:18;16.1;76.8
79301;SHT31;68755;51.984;5.646;2023-05-10T07:17:48;16.1;76.6
79301;SHT31;68755;51.984;5.646;2023-05-10T07:20:19;16.1;76.7
79301;SHT31;68755;51.984;5.646;2023-05-10T07:22:48;16.1;76.6
79301;SHT31;68755;51.984;5.646;2023-05-10T07:25:18;16.1;76.7
79301;SHT31;68755;51.984;5.646;2023-05-10T07:27:48;16.1;76.9
79301;SHT31;68755;51.984;5.646;2023-05-10T07:30:18;16.2;76.9
79301;SHT31;68755;51.984;5.646;2023-05-10T07:32:48;16.2;76.9
79301;SHT31;68755;51.984;5.646;2023-05-10T07:35:18;16.2;76.9
79301;SHT31;68755;51.984;5.646;2023-05-10T07:37:48;16.3;77.0
79301;SHT31;68755;51.984;5.646;2023-05-10T07:40:18;16.3;76.7
79301;SHT31;68755;51.984;5.646;2023-05-10T07:42:47;16.4;77.1
79301;SHT31;68755;51.984;5.646;2023-05-10T07:45:17;16.4;77.2
79301;SHT31;68755;51.984;5.646;2023-05-10T07:47:47;16.5;76.6
79301;SHT31;68755;51.984;5.646;2023-05-10T07:50:17;16.5;75.3
79301;SHT31;68755;51.984;5.646;2023-05-10T07:52:47;16.6;74.9
79301;SHT31;68755;51.984;5.646;2023-05-10T07:55:18;16.6;73.9
79301;SHT31;68755;51.984;5.646;2023-05-10T07:57:48;16.7;73.7
79301;SHT31;68755;51.984;5.646;2023-05-10T08:00:20;16.7;73.0
79301;SHT31;68755;51.984;5.646;2023-05-10T08:02:51;16.7;73.0
79301;SHT31;68755;51.984;5.646;2023-05-10T08:05:22;16.7;72.7
79301;SHT31;68755;51.984;5.646;2023-05-10T08:07:51;16.7;72.9
79301;SHT31;68755;51.984;5.646;2023-05-10T08:10:21;16.7;72.1
79301;SHT31;68755;51.984;5.646;2023-05-10T08:12:51;16.7;71.2
79301;SHT31;68755;51.984;5.646;2023-05-10T08:15:20;16.7;71.7
79301;SHT31;68755;51.984;5.646;2023-05-10T08:17:50;16.7;71.9
79301;SHT31;68755;51.984;5.646;2023-05-10T08:20:20;16.7;71.5
79301;SHT31;68755;51.984;5.646;2023-05-10T08:22:50;16.7;72.8
79301;SHT31;68755;51.984;5.646;2023-05-10T08:25:19;16.7;72.1
79301;SHT31;68755;51.984;5.646;2023-05-10T08:27:49;16.7;71.1
79301;SHT31;68755;51.984;5.646;2023-05-10T08:30:19;16.7;71.2
79301;SHT31;68755;51.984;5.646;2023-05-10T08:32:48;16.7;71.2
79301;SHT31;68755;51.984;5.646;2023-05-10T08:35:19;16.7;72.1
79301;SHT31;68755;51.984;5.646;2023-05-10T08:37:50;16.7;71.9
79301;SHT31;68755;51.984;5.646;2023-05-10T08:40:20;16.8;71.0
79301;SHT31;68755;51.984;5.646;2023-05-10T08:42:58;16.8;71.9
79301;SHT31;68755;51.984;5.646;2023-05-10T08:45:32;16.8;72.1
79301;SHT31;68755;51.984;5.646;2023-05-10T08:48:05;16.9;73.0
79301;SHT31;68755;51.984;5.646;2023-05-10T08:50:36;16.9;74.1
79301;SHT31;68755;51.984;5.646;2023-05-10T08:53:09;17.0;70.6
79301;SHT31;68755;51.984;5.646;2023-05-10T08:55:40;17.0;70.1
79301;SHT31;68755;51.984;5.646;2023-05-10T08:58:10;17.1;69.5
79301;SHT31;68755;51.984;5.646;2023-05-10T09:00:43;17.1;68.6
79301;SHT31;68755;51.984;5.646;2023-05-10T09:03:13;17.2;70.7
79301;SHT31;68755;51.984;5.646;2023-05-10T09:05:43;17.2;69.2
79301;SHT31;68755;51.984;5.646;2023-05-10T09:08:14;17.2;69.7
79301;SHT31;68755;51.984;5.646;2023-05-10T09:10:45;17.3;69.7
79301;SHT31;68755;51.984;5.646;2023-05-10T09:13:17;17.3;69.7
79301;SHT31;68755;51.984;5.646;2023-05-10T09:15:48;17.3;68.7
79301;SHT31;68755;51.984;5.646;2023-05-10T09:18:18;17.3;69.7
79301;SHT31;68755;51.984;5.646;2023-05-10T09:20:48;17.3;69.8
79301;SHT31;68755;51.984;5.646;2023-05-10T09:23:18;17.3;69.9
79301;SHT31;68755;51.984;5.646;2023-05-10T09:25:50;17.3;69.1
79301;SHT31;68755;51.984;5.646;2023-05-10T09:28:25;17.3;69.9
79301;SHT31;68755;51.984;5.646;2023-05-10T09:30:54;17.3;69.0
79301;SHT31;68755;51.984;5.646;2023-05-10T09:33:25;17.3;67.9
79301;SHT31;68755;51.984;5.646;2023-05-10T09:35:54;17.4;68.7
79301;SHT31;68755;51.984;5.646;2023-05-10T09:38:26;17.4;67.7
79301;SHT31;68755;51.984;5.646;2023-05-10T09:40:56;17.4;69.4
79301;SHT31;68755;51.984;5.646;2023-05-10T09:43:25;17.4;69.6
79301;SHT31;68755;51.984;5.646;2023-05-10T09:45:55;17.4;68.5
79301;SHT31;68755;51.984;5.646;2023-05-10T09:48:25;17.5;69.1
79301;SHT31;68755;51.984;5.646;2023-05-10T09:50:58;17.5;69.5
79301;SHT31;68755;51.984;5.646;2023-05-10T09:53:28;17.5;68.8
79301;SHT31;68755;51.984;5.646;2023-05-10T09:55:57;17.6;67.9
79301;SHT31;68755;51.984;5.646;2023-05-10T09:58:27;17.6;68.1
79301;SHT31;68755;51.984;5.646;2023-05-10T10:00:59;17.6;69.0
79301;SHT31;68755;51.984;5.646;2023-05-10T10:03:30;17.6;67.7
79301;SHT31;68755;51.984;5.646;2023-05-10T10:05:59;17.6;68.2
79301;SHT31;68755;51.984;5.646;2023-05-10T10:08:31;17.7;68.2
79301;SHT31;68755;51.984;5.646;2023-05-10T10:11:01;17.7;67.0
79301;SHT31;68755;51.984;5.646;2023-05-10T10:13:30;17.7;66.6
79301;SHT31;68755;51.984;5.646;2023-05-10T10:16:04;17.7;67.9
79301;SHT31;68755;51.984;5.646;2023-05-10T10:18:36;17.7;67.7
79301;SHT31;68755;51.984;5.646;2023-05-10T10:21:07;17.7;66.5
79301;SHT31;68755;51.984;5.646;2023-05-10T10:23:37;17.7;65.8
79301;SHT31;68755;51.984;5.646;2023-05-10T10:26:07;17.7;67.8
79301;SHT31;68755;51.984;5.646;2023-05-10T10:28:45;17.8;67.8
79301;SHT31;68755;51.984;5.646;2023-05-10T10:31:30;17.8;66.8
79301;SHT31;68755;51.984;5.646;2023-05-10T10:34:05;17.8;67.0
79301;SHT31;68755;51.984;5.646;2023-05-10T10:36:43;17.8;67.5
79301;SHT31;68755;51.984;5.646;2023-05-10T10:39:15;17.8;66.5
79301;SHT31;68755;51.984;5.646;2023-05-10T10:41:52;17.9;66.1
79301;SHT31;68755;51.984;5.646;2023-05-10T10:44:32;17.9;66.5
79301;SHT31;68755;51.984;5.646;2023-05-10T10:47:04;17.9;67.2
79301;SHT31;68755;51.984;5.646;2023-05-10T10:49:44;17.9;65.6
79301;SHT31;68755;51.984;5.646;2023-05-10T10:52:26;17.9;66.5
79301;SHT31;68755;51.984;5.646;2023-05-10T10:55:03;17.9;66.9
79301;SHT31;68755;51.984;5.646;2023-05-10T10:57:47;17.9;65.0
79301;SHT31;68755;51.984;5.646;2023-05-10T11:00:25;17.9;65.6
79301;SHT31;68755;51.984;5.646;2023-05-10T11:02:57;17.9;66.8
79301;SHT31;68755;51.984;5.646;2023-05-10T11:05:38;17.9;66.7
79301;SHT31;68755;51.984;5.646;2023-05-10T11:08:21;18.0;66.9
79301;SHT31;68755;51.984;5.646;2023-05-10T11:11:07;18.0;67.6
79301;SHT31;68755;51.984;5.646;2023-05-10T11:13:41;18.0;67.9
79301;SHT31;68755;51.984;5.646;2023-05-10T11:16:17;18.1;66.3
79301;SHT31;68755;51.984;5.646;2023-05-10T11:18:57;18.1;66.7
79301;SHT31;68755;51.984;5.646;2023-05-10T11:21:28;18.2;67.3
79301;SHT31;68755;51.984;5.646;2023-05-10T11:23:59;18.2;66.5
79301;SHT31;68755;51.984;5.646;2023-05-10T11:26:34;18.3;66.3
79301;SHT31;68755;51.984;5.646;2023-05-10T11:29:05;18.3;65.9
79301;SHT31;68755;51.984;5.646;2023-05-10T11:31:35;18.4;65.6
79301;SHT31;68755;51.984;5.646;2023-05-10T11:34:11;18.4;65.3
79301;SHT31;68755;51.984;5.646;2023-05-10T11:36:44;18.4;65.7
79301;SHT31;68755;51.984;5.646;2023-05-10T11:39:18;18.5;66.7
79301;SHT31;68755;51.984;5.646;2023-05-10T11:41:49;18.5;65.5
79301;SHT31;68755;51.984;5.646;2023-05-10T11:44:19;18.5;65.3
79301;SHT31;68755;51.984;5.646;2023-05-10T11:46:50;18.6;64.5
79301;SHT31;68755;51.984;5.646;2023-05-10T11:49:24;18.6;64.8
79301;SHT31;68755;51.984;5.646;2023-05-10T11:52:07;18.7;65.0
79301;SHT31;68755;51.984;5.646;2023-05-10T11:54:52;18.7;63.8
79301;SHT31;68755;51.984;5.646;2023-05-10T11:57:26;18.7;63.9
79301;SHT31;68755;51.984;5.646;2023-05-10T11:59:58;18.8;63.1
79301;SHT31;68755;51.984;5.646;2023-05-10T12:02:29;18.9;63.4
79301;SHT31;68755;51.984;5.646;2023-05-10T12:05:00;19.0;62.9
79301;SHT31;68755;51.984;5.646;2023-05-10T12:07:30;19.0;61.6
79301;SHT31;68755;51.984;5.646;2023-05-10T12:10:08;19.1;65.1
79301;SHT31;68755;51.984;5.646;2023-05-10T12:12:43;19.2;63.9
79301;SHT31;68755;51.984;5.646;2023-05-10T12:15:18;19.2;63.3
79301;SHT31;68755;51.984;5.646;2023-05-10T12:17:48;19.3;62.8
79301;SHT31;68755;51.984;5.646;2023-05-10T12:20:20;19.3;64.6
79301;SHT31;68755;51.984;5.646;2023-05-10T12:22:53;19.4;61.3
79301;SHT31;68755;51.984;5.646;2023-05-10T12:25:29;19.4;59.6
79301;SHT31;68755;51.984;5.646;2023-05-10T12:28:00;19.4;60.0
79301;SHT31;68755;51.984;5.646;2023-05-10T12:30:33;19.4;61.7
79301;SHT31;68755;51.984;5.646;2023-05-10T12:33:11;19.4;62.7
79301;SHT31;68755;51.984;5.646;2023-05-10T12:35:47;19.5;61.5
79301;SHT31;68755;51.984;5.646;2023-05-10T12:38:31;19.5;61.6
79301;SHT31;68755;51.984;5.646;2023-05-10T12:41:03;19.5;61.3
79301;SHT31;68755;51.984;5.646;2023-05-10T12:43:34;19.5;60.3
79301;SHT31;68755;51.984;5.646;2023-05-10T12:46:08;19.5;60.0
79301;SHT31;68755;51.984;5.646;2023-05-10T12:48:39;19.5;62.1
79301;SHT31;68755;51.984;5.646;2023-05-10T12:51:10;19.5;62.0
79301;SHT31;68755;51.984;5.646;2023-05-10T12:53:45;19.5;60.7
79301;SHT31;68755;51.984;5.646;2023-05-10T12:56:17;19.4;61.5
79301;SHT31;68755;51.984;5.646;2023-05-10T12:58:47;19.4;63.5
79301;SHT31;68755;51.984;5.646;2023-05-10T13:01:19;19.4;63.0
79301;SHT31;68755;51.984;5.646;2023-05-10T13:03:48;19.4;62.6
79301;SHT31;68755;51.984;5.646;2023-05-10T13:06:18;19.4;63.0
79301;SHT31;68755;51.984;5.646;2023-05-10T13:08:48;19.3;63.1
79301;SHT31;68755;51.984;5.646;2023-05-10T13:11:17;19.3;63.5
79301;SHT31;68755;51.984;5.646;2023-05-10T13:13:49;19.2;64.1
79301;SHT31;68755;51.984;5.646;2023-05-10T13:16:18;19.2;64.5
79301;SHT31;68755;51.984;5.646;2023-05-10T13:18:48;19.1;65.3
79301;SHT31;68755;51.984;5.646;2023-05-10T13:21:18;19.0;66.4
79301;SHT31;68755;51.984;5.646;2023-05-10T13:23:47;19.0;66.3
79301;SHT31;68755;51.984;5.646;2023-05-10T13:26:17;18.9;67.1
79301;SHT31;68755;51.984;5.646;2023-05-10T13:28:49;18.8;68.1
79301;SHT31;68755;51.984;5.646;2023-05-10T13:31:21;18.7;68.6
79301;SHT31;68755;51.984;5.646;2023-05-10T13:33:50;18.6;69.6
79301;SHT31;68755;51.984;5.646;2023-05-10T13:36:20;18.5;69.8
79301;SHT31;68755;51.984;5.646;2023-05-10T13:38:50;18.4;70.1
79301;SHT31;68755;51.984;5.646;2023-05-10T13:41:19;18.4;71.0
79301;SHT31;68755;51.984;5.646;2023-05-10T13:43:49;18.3;70.9
79301;SHT31;68755;51.984;5.646;2023-05-10T13:46:18;18.2;71.2
79301;SHT31;68755;51.984;5.646;2023-05-10T13:48:48;18.2;71.1
79301;SHT31;68755;51.984;5.646;2023-05-10T13:51:17;18.1;70.9
79301;SHT31;68755;51.984;5.646;2023-05-10T13:53:47;18.1;70.9
79301;SHT31;68755;51.984;5.646;2023-05-10T13:56:18;18.1;70.3
79301;SHT31;68755;51.984;5.646;2023-05-10T13:58:48;18.0;70.4
79301;SHT31;68755;51.984;5.646;2023-05-10T14:01:18;18.0;69.9
79301;SHT31;68755;51.984;5.646;2023-05-10T14:03:48;18.0;69.5
79301;SHT31;68755;51.984;5.646;2023-05-10T14:06:18;17.9;68.7
79301;SHT31;68755;51.984;5.646;2023-05-10T14:08:49;17.9;69.7
79301;SHT31;68755;51.984;5.646;2023-05-10T14:11:19;17.9;70.5
79301;SHT31;68755;51.984;5.646;2023-05-10T14:13:49;17.9;71.2
79301;SHT31;68755;51.984;5.646;2023-05-10T14:16:19;17.9;71.4
79301;SHT31;68755;51.984;5.646;2023-05-10T14:18:49;18.0;71.2
79301;SHT31;68755;51.984;5.646;2023-05-10T14:21:18;18.0;71.4
79301;SHT31;68755;51.984;5.646;2023-05-10T14:23:48;18.0;71.0
79301;SHT31;68755;51.984;5.646;2023-05-10T14:26:17;18.0;70.6
79301;SHT31;68755;51.984;5.646;2023-05-10T14:28:48;18.0;70.4
79301;SHT31;68755;51.984;5.646;2023-05-10T14:31:17;18.0;70.5
79301;SHT31;68755;51.984;5.646;2023-05-10T14:33:47;18.0;69.9
79301;SHT31;68755;51.984;5.646;2023-05-10T14:36:17;17.9;70.6
79301;SHT31;68755;51.984;5.646;2023-05-10T14:38:47;17.9;71.2
79301;SHT31;68755;51.984;5.646;2023-05-10T14:41:17;17.9;71.4
79301;SHT31;68755;51.984;5.646;2023-05-10T14:43:47;17.9;70.4
79301;SHT31;68755;51.984;5.646;2023-05-10T14:46:18;17.9;71.2
79301;SHT31;68755;51.984;5.646;2023-05-10T14:48:47;17.8;72.1
79301;SHT31;68755;51.984;5.646;2023-05-10T14:51:17;17.8;71.5
79301;SHT31;68755;51.984;5.646;2023-05-10T14:53:49;17.8;70.3
79301;SHT31;68755;51.984;5.646;2023-05-10T14:56:18;17.8;71.6
79301;SHT31;68755;51.984;5.646;2023-05-10T14:58:49;17.8;72.4
79301;SHT31;68755;51.984;5.646;2023-05-10T15:01:19;17.8;71.8
79301;SHT31;68755;51.984;5.646;2023-05-10T15:03:48;17.8;71.4
79301;SHT31;68755;51.984;5.646;2023-05-10T15:06:23;17.9;70.6
79301;SHT31;68755;51.984;5.646;2023-05-10T15:08:54;17.9;71.7
79301;SHT31;68755;51.984;5.646;2023-05-10T15:11:24;17.9;72.0
79301;SHT31;68755;51.984;5.646;2023-05-10T15:13:53;17.9;72.1
79301;SHT31;68755;51.984;5.646;2023-05-10T15:16:23;17.9;72.0
79301;SHT31;68755;51.984;5.646;2023-05-10T15:18:53;17.9;71.7
79301;SHT31;68755;51.984;5.646;2023-05-10T15:21:22;17.9;71.6
79301;SHT31;68755;51.984;5.646;2023-05-10T15:23:52;17.9;71.6
79301;SHT31;68755;51.984;5.646;2023-05-10T15:26:21;17.9;70.2
79301;SHT31;68755;51.984;5.646;2023-05-10T15:28:51;17.9;72.0
79301;SHT31;68755;51.984;5.646;2023-05-10T15:31:21;17.9;72.4
79301;SHT31;68755;51.984;5.646;2023-05-10T15:33:51;17.9;73.8
79301;SHT31;68755;51.984;5.646;2023-05-10T15:36:21;17.9;71.8
79301;SHT31;68755;51.984;5.646;2023-05-10T15:38:50;18.0;72.4
79301;SHT31;68755;51.984;5.646;2023-05-10T15:41:20;18.0;71.9
79301;SHT31;68755;51.984;5.646;2023-05-10T15:43:50;18.0;71.7
79301;SHT31;68755;51.984;5.646;2023-05-10T15:46:19;18.0;71.2
79301;SHT31;68755;51.984;5.646;2023-05-10T15:48:51;18.0;70.1
79301;SHT31;68755;51.984;5.646;2023-05-10T15:51:21;18.0;70.4
79301;SHT31;68755;51.984;5.646;2023-05-10T15:53:51;18.0;70.1
79301;SHT31;68755;51.984;5.646;2023-05-10T15:56:20;18.0;70.3
79301;SHT31;68755;51.984;5.646;2023-05-10T15:58:52;18.0;71.8
79301;SHT31;68755;51.984;5.646;2023-05-10T16:01:21;18.0;72.5
79301;SHT31;68755;51.984;5.646;2023-05-10T16:03:51;18.0;71.6
79301;SHT31;68755;51.984;5.646;2023-05-10T16:06:21;18.0;71.4
79301;SHT31;68755;51.984;5.646;2023-05-10T16:08:50;18.0;71.0
79301;SHT31;68755;51.984;5.646;2023-05-10T16:11:19;18.0;71.6
79301;SHT31;68755;51.984;5.646;2023-05-10T16:13:51;18.0;71.5
79301;SHT31;68755;51.984;5.646;2023-05-10T16:16:21;18.0;71.6
79301;SHT31;68755;51.984;5.646;2023-05-10T16:18:51;18.0;71.1
79301;SHT31;68755;51.984;5.646;2023-05-10T16:21:20;18.0;71.8
79301;SHT31;68755;51.984;5.646;2023-05-10T16:23:50;18.0;71.4
79301;SHT31;68755;51.984;5.646;2023-05-10T16:26:20;18.0;71.7
79301;SHT31;68755;51.984;5.646;2023-05-10T16:28:50;18.0;70.3